Chesterfield, Virginia
Current Conditions -  °F | °C
As of 1:55 AM on Thursday 27 Nov 2014 (Local Time) from KFCI Reporting Station
Clear Clear  
Wind Chill: 37°   Ceiling: Unl
Heat Index: 37°   Visibility: 9mi
Dew Point: 27°   Wind: 0mph
Humidity: 65%   Direction: NA
Pressure: 30.03"   Gusts: NA
Location:  37.38°N, 77.51°W
Report Text: KFCI 270655Z AUTO 00000KT 9SM CLR 03/M03 A3003 RMK AO1
Loading
Personal Weather Stations






























Interactive Weather Map New forecast layout! Learn more

10-Day Weather Forecast

Advertisements
Track Severe Weather on mobile